PWSweather.com
Personal Weather Stations
Station Observations
01979
Ravne Pri CerknemSI 5282

Ravne Pri CerknemSI 5282

Lat: 46.1213916, Lon: 13.952774299999987

Elevation: 2244.094488

Station Type: Techo Line WS2307

www.vremenska.postaja.andre.si/

High Low Average
Temperature 43.5°F6.4°C 33.1°F0.6°C 38.2°F3.4°C
Dew Point 39.4°F4.1°C 21.0°F-6.1°C 30.5°F-0.8°C
Winds 11.8 mph 19.0 kmh Calm Calm 2.0 mph ENE3.2 kmh ENE
Wind Gusts 15.9 mph25.6 kmh -- 4.0 mph6.4 kmh
Humidity 94% 48% 76%
Pressure 30.09 in1019.0 mb 29.66 in1004.4 mb -
Precipitation 0.35 in8.9 mm - -
Hour Temp Dew Point Humidity Winds Wind Gusts Pressure Precip Precip Rate Daily Precip Total
12:00 AM 42.1°F5.6°C 39.4°F4.1°C 90% 4.9 mph NW7.9 kmh NW 8.9 mph14.3 kmh 29.70 in1005.8 mb 0.04 in1.0 mm 0.00 in0.0 mm 0.04 in1.0 mm
12:10 AM 41.7°F5.4°C 39.0°F3.9°C 90% 6.0 mph W9.7 kmh W 11.9 mph19.2 kmh 29.70 in1005.8 mb 0.04 in1.0 mm 0.00 in0.0 mm 0.02 in0.5 mm
12:20 AM 41.4°F5.2°C 38.9°F3.8°C 91% 1.9 mph W3.1 kmh W 6.3 mph10.1 kmh 29.69 in1005.4 mb 0.04 in1.0 mm 0.00 in0.0 mm 0.02 in0.5 mm
12:30 AM 41.0°F5.0°C 38.9°F3.8°C 92% Calm Calm -- 29.70 in1005.8 mb 0.02 in0.5 mm 0.00 in0.0 mm 0.02 in0.5 mm
12:40 AM 41.2°F5.1°C 39.0°F3.9°C 92% 4.6 mph WSW7.4 kmh WSW 9.8 mph15.8 kmh 29.69 in1005.4 mb 0.04 in1.0 mm 0.12 in3.0 mm 0.04 in1.0 mm
12:50 AM 41.0°F5.0°C 38.9°F3.8°C 92% Calm Calm -- 29.68 in1005.1 mb 0.04 in1.0 mm 0.00 in0.0 mm 0.04 in1.0 mm
01:00 AM 40.8°F4.9°C 38.7°F3.7°C 92% Calm Calm -- 29.68 in1005.1 mb 0.06 in1.5 mm 0.02 in0.5 mm 0.06 in1.5 mm
01:10 AM 40.6°F4.8°C 38.5°F3.6°C 92% Calm Calm -- 29.68 in1005.1 mb 0.04 in1.0 mm 0.00 in0.0 mm 0.06 in1.5 mm
01:20 AM 40.8°F4.9°C 39.0°F3.9°C 93% Calm Calm -- 29.68 in1005.1 mb 0.04 in1.0 mm 0.00 in0.0 mm 0.06 in1.5 mm
01:30 AM 40.8°F4.9°C 39.2°F4.0°C 94% 1.7 mph N2.7 kmh N 8.1 mph13.0 kmh 29.68 in1005.1 mb 0.04 in1.0 mm 0.00 in0.0 mm 0.06 in1.5 mm
01:40 AM 40.6°F4.8°C 39.0°F3.9°C 94% 1.0 mph NNW1.6 kmh NNW 4.9 mph7.9 kmh 29.68 in1005.1 mb 0.06 in1.5 mm 0.12 in3.0 mm 0.10 in2.5 mm
01:50 AM 40.8°F4.9°C 39.2°F4.0°C 94% 0.6 mph WNW1.0 kmh WNW 2.9 mph4.7 kmh 29.68 in1005.1 mb 0.08 in2.0 mm 0.12 in3.0 mm 0.12 in3.0 mm
02:00 AM 40.6°F4.8°C 39.0°F3.9°C 94% 2.0 mph N3.2 kmh N 5.1 mph8.2 kmh 29.68 in1005.1 mb 0.08 in2.0 mm 0.00 in0.0 mm 0.14 in3.6 mm
02:03 AM 40.6°F4.8°C 39.0°F3.9°C 94% 0.7 mph N1.1 kmh N 3.4 mph5.5 kmh 29.68 in1005.1 mb 0.04 in1.0 mm 0.00 in0.0 mm 0.10 in2.5 mm
02:10 AM 40.6°F4.8°C 39.0°F3.9°C 94% 1.0 mph N1.6 kmh N 1.6 mph2.6 kmh 29.68 in1005.1 mb 0.10 in2.5 mm 0.51 in13.0 mm 0.16 in4.1 mm
02:20 AM 40.6°F4.8°C 39.0°F3.9°C 94% 1.2 mph WNW1.9 kmh WNW 5.8 mph9.3 kmh 29.68 in1005.1 mb 0.12 in3.0 mm 0.12 in3.0 mm 0.18 in4.6 mm
02:30 AM 39.7°F4.3°C 38.2°F3.4°C 94% 3.7 mph NW6.0 kmh NW 9.2 mph14.8 kmh 29.69 in1005.4 mb 0.12 in3.0 mm 0.00 in0.0 mm 0.22 in5.6 mm
02:40 AM 39.6°F4.2°C 38.0°F3.3°C 94% 4.8 mph N7.7 kmh N 8.7 mph14.0 kmh 29.68 in1005.1 mb 0.12 in3.0 mm 0.00 in0.0 mm 0.24 in6.1 mm
02:50 AM 39.4°F4.1°C 37.5°F3.1°C 93% 8.2 mph N13.2 kmh N 12.5 mph20.1 kmh 29.67 in1004.7 mb 0.12 in3.0 mm 0.00 in0.0 mm 0.26 in6.6 mm
03:00 AM 39.0°F3.9°C 37.2°F2.9°C 93% 7.9 mph N12.7 kmh N 12.3 mph19.8 kmh 29.66 in1004.4 mb 0.19 in4.8 mm 0.08 in2.0 mm 0.29 in7.4 mm
03:10 AM 38.8°F3.8°C 37.0°F2.8°C 93% 2.8 mph NE4.5 kmh NE 7.2 mph11.6 kmh 29.66 in1004.4 mb 0.12 in3.0 mm 0.00 in0.0 mm 0.29 in7.4 mm
03:20 AM 38.8°F3.8°C 37.0°F2.8°C 93% 0.5 mph NE0.8 kmh NE 2.5 mph4.0 kmh 29.66 in1004.4 mb 0.10 in2.5 mm 0.00 in0.0 mm 0.31 in7.9 mm
03:30 AM 38.8°F3.8°C 37.0°F2.8°C 93% 2.6 mph NE4.2 kmh NE 5.1 mph8.2 kmh 29.66 in1004.4 mb 0.08 in2.0 mm 0.00 in0.0 mm 0.31 in7.9 mm
03:40 AM 39.0°F3.9°C 36.9°F2.7°C 92% 3.7 mph NE6.0 kmh NE 5.6 mph9.0 kmh 29.66 in1004.4 mb 0.06 in1.5 mm 0.00 in0.0 mm 0.31 in7.9 mm
03:50 AM 37.9°F3.3°C 36.1°F2.3°C 93% 8.9 mph E14.3 kmh E 13.0 mph20.9 kmh 29.66 in1004.4 mb 0.04 in1.0 mm 0.00 in0.0 mm 0.31 in7.9 mm
04:00 AM 37.6°F3.1°C 35.7°F2.1°C 93% 7.5 mph E12.1 kmh E 9.6 mph15.4 kmh 29.66 in1004.4 mb 0.04 in1.0 mm 0.00 in0.0 mm 0.33 in8.4 mm
04:10 AM 36.7°F2.6°C 34.3°F1.3°C 91% 11.8 mph ESE19.0 kmh ESE 15.9 mph25.6 kmh 29.67 in1004.7 mb 0.04 in1.0 mm 0.00 in0.0 mm 0.33 in8.4 mm
04:20 AM 36.1°F2.3°C 33.8°F1.0°C 91% 11.0 mph E17.7 kmh E 14.1 mph22.7 kmh 29.67 in1004.7 mb 0.02 in0.5 mm 0.00 in0.0 mm 0.33 in8.4 mm
04:30 AM 35.8°F2.1°C 33.4°F0.8°C 91% 6.3 mph E10.1 kmh E 13.4 mph21.6 kmh 29.68 in1005.1 mb 0.02 in0.5 mm 0.00 in0.0 mm 0.33 in8.4 mm
04:40 AM 35.8°F2.1°C 33.4°F0.8°C 91% 2.7 mph SE4.3 kmh SE 7.6 mph12.2 kmh 29.69 in1005.4 mb 0.02 in0.5 mm 0.00 in0.0 mm 0.33 in8.4 mm
04:50 AM 35.4°F1.9°C 32.8°F0.4°C 90% Calm Calm -- 29.69 in1005.4 mb 0.00 in0.0 mm 0.00 in0.0 mm 0.33 in8.4 mm
05:00 AM 35.2°F1.8°C 32.6°F0.3°C 90% Calm Calm -- 29.70 in1005.8 mb 0.02 in0.5 mm 0.02 in0.5 mm 0.35 in8.9 mm
05:10 AM 34.7°F1.5°C 32.3°F0.2°C 91% Calm Calm -- 29.70 in1005.8 mb 0.02 in0.5 mm 0.00 in0.0 mm 0.35 in8.9 mm
05:20 AM 34.3°F1.3°C 32.0°F0.0°C 91% 1.0 mph SSW1.6 kmh SSW 2.7 mph4.3 kmh 29.70 in1005.8 mb 0.02 in0.5 mm 0.00 in0.0 mm 0.35 in8.9 mm
05:30 AM 34.3°F1.3°C 32.3°F0.2°C 92% 3.1 mph S5.0 kmh S 10.3 mph16.6 kmh 29.69 in1005.4 mb 0.02 in0.5 mm 0.00 in0.0 mm 0.35 in8.9 mm
05:40 AM 34.2°F1.2°C 32.3°F0.2°C 93% 6.1 mph S9.8 kmh S 10.3 mph16.6 kmh 29.70 in1005.8 mb 0.02 in0.5 mm 0.00 in0.0 mm 0.35 in8.9 mm
05:50 AM 34.2°F1.2°C 32.3°F0.2°C 93% 4.9 mph S7.9 kmh S 6.9 mph11.1 kmh 29.70 in1005.8 mb 0.02 in0.5 mm 0.00 in0.0 mm 0.35 in8.9 mm
06:00 AM 34.2°F1.2°C 32.3°F0.2°C 93% 7.2 mph S11.6 kmh S 13.2 mph21.2 kmh 29.70 in1005.8 mb 0.00 in0.0 mm 0.00 in0.0 mm 0.35 in8.9 mm
06:10 AM 34.3°F1.3°C 32.5°F0.3°C 93% 4.6 mph S7.4 kmh S 11.6 mph18.7 kmh 29.70 in1005.8 mb 0.00 in0.0 mm 0.00 in0.0 mm 0.35 in8.9 mm
06:20 AM 34.3°F1.3°C 32.5°F0.3°C 93% 0.6 mph S1.0 kmh S 2.9 mph4.7 kmh 29.70 in1005.8 mb 0.00 in0.0 mm 0.00 in0.0 mm 0.35 in8.9 mm
06:30 AM 33.6°F0.9°C 31.8°F-0.1°C 93% 0.2 mph SSE0.3 kmh SSE 1.3 mph2.1 kmh 29.70 in1005.8 mb 0.00 in0.0 mm 0.00 in0.0 mm 0.35 in8.9 mm
06:40 AM 33.6°F0.9°C 31.8°F-0.1°C 93% 1.6 mph SSE2.6 kmh SSE 3.6 mph5.8 kmh 29.71 in1006.1 mb 0.00 in0.0 mm 0.00 in0.0 mm 0.35 in8.9 mm
06:50 AM 34.0°F1.1°C 32.4°F0.2°C 94% Calm Calm -- 29.71 in1006.1 mb 0.00 in0.0 mm 0.00 in0.0 mm 0.35 in8.9 mm
07:00 AM 33.6°F0.9°C 32.1°F0.1°C 94% Calm Calm -- 29.72 in1006.4 mb 0.00 in0.0 mm 0.00 in0.0 mm 0.35 in8.9 mm
07:10 AM 33.1°F0.6°C 31.5°F-0.3°C 94% Calm Calm -- 29.72 in1006.4 mb 0.00 in0.0 mm 0.00 in0.0 mm 0.35 in8.9 mm
07:20 AM 33.4°F0.8°C 31.9°F-0.1°C 94% Calm Calm -- 29.73 in1006.8 mb 0.00 in0.0 mm 0.00 in0.0 mm 0.35 in8.9 mm
07:30 AM 34.2°F1.2°C 32.6°F0.3°C 94% 0.7 mph SSE1.1 kmh SSE 2.2 mph3.5 kmh 29.73 in1006.8 mb 0.00 in0.0 mm 0.00 in0.0 mm 0.35 in8.9 mm
07:40 AM 34.0°F1.1°C 32.4°F0.2°C 94% 0.1 mph S0.2 kmh S 1.6 mph2.6 kmh 29.75 in1007.5 mb 0.00 in0.0 mm 0.00 in0.0 mm 0.35 in8.9 mm
07:50 AM 33.6°F0.9°C 32.1°F0.1°C 94% Calm Calm -- 29.75 in1007.5 mb 0.00 in0.0 mm 0.00 in0.0 mm 0.35 in8.9 mm
08:00 AM 33.4°F0.8°C 31.9°F-0.1°C 94% 0.5 mph S0.8 kmh S 2.2 mph3.5 kmh 29.74 in1007.1 mb 0.00 in0.0 mm 0.00 in0.0 mm 0.35 in8.9 mm
08:10 AM 33.4°F0.8°C 31.9°F-0.1°C 94% 2.2 mph SE3.5 kmh SE 4.7 mph7.6 kmh 29.74 in1007.1 mb 0.00 in0.0 mm 0.00 in0.0 mm 0.35 in8.9 mm
08:20 AM 33.6°F0.9°C 32.1°F0.1°C 94% 3.7 mph ESE6.0 kmh ESE 6.0 mph9.7 kmh 29.75 in1007.5 mb 0.00 in0.0 mm 0.00 in0.0 mm 0.35 in8.9 mm
08:30 AM 34.2°F1.2°C 32.6°F0.3°C 94% 3.8 mph ESE6.1 kmh ESE 6.0 mph9.7 kmh 29.75 in1007.5 mb 0.00 in0.0 mm 0.00 in0.0 mm 0.35 in8.9 mm
08:40 AM 34.3°F1.3°C 32.8°F0.4°C 94% 2.6 mph E4.2 kmh E 5.6 mph9.0 kmh 29.76 in1007.8 mb 0.00 in0.0 mm 0.00 in0.0 mm 0.35 in8.9 mm
08:50 AM 34.2°F1.2°C 32.6°F0.3°C 94% 3.2 mph E5.1 kmh E 5.6 mph9.0 kmh 29.77 in1008.1 mb 0.00 in0.0 mm 0.00 in0.0 mm 0.35 in8.9 mm
09:00 AM 34.2°F1.2°C 32.6°F0.3°C 94% 6.2 mph E10.0 kmh E 8.1 mph13.0 kmh 29.76 in1007.8 mb 0.00 in0.0 mm 0.00 in0.0 mm 0.35 in8.9 mm
09:10 AM 34.3°F1.3°C 32.8°F0.4°C 94% 5.3 mph ESE8.5 kmh ESE 6.0 mph9.7 kmh 29.77 in1008.1 mb 0.00 in0.0 mm 0.00 in0.0 mm 0.35 in8.9 mm
09:20 AM 34.3°F1.3°C 32.8°F0.4°C 94% 5.3 mph ESE8.5 kmh ESE 6.7 mph10.8 kmh 29.77 in1008.1 mb 0.00 in0.0 mm 0.00 in0.0 mm 0.35 in8.9 mm
09:30 AM 34.3°F1.3°C 32.8°F0.4°C 94% 3.9 mph E6.3 kmh E 6.7 mph10.8 kmh 29.78 in1008.5 mb 0.00 in0.0 mm 0.00 in0.0 mm 0.35 in8.9 mm
09:40 AM 34.7°F1.5°C 33.2°F0.7°C 94% 3.0 mph ESE4.8 kmh ESE 7.8 mph12.6 kmh 29.78 in1008.5 mb 0.00 in0.0 mm 0.00 in0.0 mm 0.35 in8.9 mm
09:50 AM 34.9°F1.6°C 33.1°F0.6°C 93% 3.7 mph E6.0 kmh E 4.7 mph7.6 kmh 29.78 in1008.5 mb 0.00 in0.0 mm 0.00 in0.0 mm 0.35 in8.9 mm
10:00 AM 34.9°F1.6°C 33.1°F0.6°C 93% 3.3 mph E5.3 kmh E 6.7 mph10.8 kmh 29.79 in1008.8 mb 0.00 in0.0 mm 0.00 in0.0 mm 0.35 in8.9 mm
10:10 AM 35.2°F1.8°C 33.4°F0.8°C 93% 1.4 mph SE2.3 kmh SE 4.9 mph7.9 kmh 29.79 in1008.8 mb 0.00 in0.0 mm 0.00 in0.0 mm 0.35 in8.9 mm
10:20 AM 35.2°F1.8°C 33.4°F0.8°C 93% 1.7 mph E2.7 kmh E 8.3 mph13.4 kmh 29.80 in1009.1 mb 0.00 in0.0 mm 0.00 in0.0 mm 0.35 in8.9 mm
10:30 AM 35.4°F1.9°C 33.3°F0.7°C 92% 1.3 mph ESE2.1 kmh ESE 4.0 mph6.4 kmh 29.80 in1009.1 mb 0.00 in0.0 mm 0.00 in0.0 mm 0.35 in8.9 mm
10:40 AM 35.6°F2.0°C 33.5°F0.8°C 92% 0.7 mph ESE1.1 kmh ESE 4.0 mph6.4 kmh 29.80 in1009.1 mb 0.00 in0.0 mm 0.00 in0.0 mm 0.35 in8.9 mm
10:50 AM 36.1°F2.3°C 34.0°F1.1°C 92% 0.3 mph ESE0.5 kmh ESE 1.6 mph2.6 kmh 29.81 in1009.5 mb 0.00 in0.0 mm 0.00 in0.0 mm 0.35 in8.9 mm
11:00 AM 36.3°F2.4°C 34.2°F1.2°C 92% Calm Calm -- 29.81 in1009.5 mb 0.00 in0.0 mm 0.00 in0.0 mm 0.35 in8.9 mm
11:10 AM 36.7°F2.6°C 34.6°F1.4°C 92% Calm Calm -- 29.81 in1009.5 mb 0.00 in0.0 mm 0.00 in0.0 mm 0.35 in8.9 mm
11:20 AM 37.2°F2.9°C 35.1°F1.7°C 92% Calm Calm -- 29.83 in1010.2 mb 0.00 in0.0 mm 0.00 in0.0 mm 0.35 in8.9 mm
11:30 AM 37.6°F3.1°C 35.2°F1.8°C 91% Calm Calm -- 29.82 in1009.8 mb 0.00 in0.0 mm 0.00 in0.0 mm 0.35 in8.9 mm
11:40 AM 37.9°F3.3°C 35.8°F2.1°C 92% Calm Calm -- 29.83 in1010.2 mb 0.00 in0.0 mm 0.00 in0.0 mm 0.35 in8.9 mm
11:50 AM 38.7°F3.7°C 36.3°F2.4°C 91% Calm Calm -- 29.83 in1010.2 mb 0.00 in0.0 mm 0.00 in0.0 mm 0.35 in8.9 mm
12:00 PM 39.4°F4.1°C 37.0°F2.8°C 91% Calm Calm -- 29.83 in1010.2 mb 0.00 in0.0 mm 0.00 in0.0 mm 0.35 in8.9 mm
12:10 PM 39.9°F4.4°C 37.2°F2.9°C 90% Calm Calm -- 29.83 in1010.2 mb 0.00 in0.0 mm 0.00 in0.0 mm 0.35 in8.9 mm
12:20 PM 39.2°F4.0°C 36.2°F2.3°C 89% Calm Calm -- 29.83 in1010.2 mb 0.00 in0.0 mm 0.00 in0.0 mm 0.35 in8.9 mm
12:30 PM 39.4°F4.1°C 36.1°F2.3°C 88% Calm Calm -- 29.83 in1010.2 mb 0.00 in0.0 mm 0.00 in0.0 mm 0.35 in8.9 mm
12:40 PM 40.6°F4.8°C 37.1°F2.8°C 87% 0.2 mph SSW0.3 kmh SSW 1.1 mph1.8 kmh 29.83 in1010.2 mb 0.00 in0.0 mm 0.00 in0.0 mm 0.35 in8.9 mm
12:50 PM 42.1°F5.6°C 37.3°F2.9°C 83% Calm Calm -- 29.84 in1010.5 mb 0.00 in0.0 mm 0.00 in0.0 mm 0.35 in8.9 mm
01:00 PM 41.9°F5.5°C 37.1°F2.8°C 83% Calm Calm -- 29.84 in1010.5 mb 0.00 in0.0 mm 0.00 in0.0 mm 0.35 in8.9 mm
01:10 PM 41.5°F5.3°C 35.8°F2.1°C 80% Calm Calm -- 29.84 in1010.5 mb 0.00 in0.0 mm 0.00 in0.0 mm 0.35 in8.9 mm
01:20 PM 42.4°F5.8°C 37.0°F2.8°C 81% Calm Calm -- 29.84 in1010.5 mb 0.00 in0.0 mm 0.00 in0.0 mm 0.35 in8.9 mm
01:30 PM 41.7°F5.4°C 35.7°F2.1°C 79% Calm Calm -- 29.84 in1010.5 mb 0.00 in0.0 mm 0.00 in0.0 mm 0.35 in8.9 mm
01:40 PM 43.5°F6.4°C 37.4°F3.0°C 79% Calm Calm -- 29.84 in1010.5 mb 0.00 in0.0 mm 0.00 in0.0 mm 0.35 in8.9 mm
01:50 PM 43.2°F6.2°C 36.4°F2.4°C 77% Calm Calm -- 29.84 in1010.5 mb 0.00 in0.0 mm 0.00 in0.0 mm 0.35 in8.9 mm
02:00 PM 42.6°F5.9°C 36.2°F2.3°C 78% Calm Calm -- 29.85 in1010.8 mb 0.00 in0.0 mm 0.00 in0.0 mm 0.35 in8.9 mm
02:10 PM 43.3°F6.3°C 36.3°F2.4°C 76% Calm Calm -- 29.85 in1010.8 mb 0.00 in0.0 mm 0.00 in0.0 mm 0.35 in8.9 mm
02:20 PM 42.4°F5.8°C 35.7°F2.1°C 77% Calm Calm -- 29.85 in1010.8 mb 0.00 in0.0 mm 0.00 in0.0 mm 0.35 in8.9 mm
02:30 PM 43.0°F6.1°C 36.3°F2.4°C 77% Calm Calm -- 29.86 in1011.2 mb 0.00 in0.0 mm 0.00 in0.0 mm 0.35 in8.9 mm
02:40 PM 42.6°F5.9°C 34.6°F1.4°C 73% Calm Calm -- 29.86 in1011.2 mb 0.00 in0.0 mm 0.00 in0.0 mm 0.35 in8.9 mm
02:50 PM 42.4°F5.8°C 32.6°F0.3°C 68% 1.1 mph ESE1.8 kmh ESE 3.1 mph5.0 kmh 29.86 in1011.2 mb 0.00 in0.0 mm 0.00 in0.0 mm 0.35 in8.9 mm
03:00 PM 42.1°F5.6°C 27.5°F-2.5°C 56% 5.0 mph N8.0 kmh N 7.8 mph12.6 kmh 29.86 in1011.2 mb 0.00 in0.0 mm 0.00 in0.0 mm 0.35 in8.9 mm
03:10 PM 41.9°F5.5°C 26.9°F-2.8°C 55% 4.8 mph NNE7.7 kmh NNE 7.8 mph12.6 kmh 29.87 in1011.5 mb 0.00 in0.0 mm 0.00 in0.0 mm 0.35 in8.9 mm
03:20 PM 41.7°F5.4°C 25.4°F-3.7°C 52% 3.9 mph NE6.3 kmh NE 6.9 mph11.1 kmh 29.87 in1011.5 mb 0.00 in0.0 mm 0.00 in0.0 mm 0.35 in8.9 mm
03:30 PM 41.5°F5.3°C 26.1°F-3.3°C 54% 6.4 mph NE10.3 kmh NE 8.9 mph14.3 kmh 29.87 in1011.5 mb 0.00 in0.0 mm 0.00 in0.0 mm 0.35 in8.9 mm
03:40 PM 41.5°F5.3°C 24.7°F-4.1°C 51% 6.4 mph N10.3 kmh N 8.5 mph13.7 kmh 29.88 in1011.9 mb 0.00 in0.0 mm 0.00 in0.0 mm 0.35 in8.9 mm
03:50 PM 41.5°F5.3°C 24.7°F-4.1°C 51% 2.5 mph NE4.0 kmh NE 7.8 mph12.6 kmh 29.88 in1011.9 mb 0.00 in0.0 mm 0.00 in0.0 mm 0.35 in8.9 mm
04:00 PM 41.5°F5.3°C 24.3°F-4.3°C 50% 3.5 mph NNE5.6 kmh NNE 5.8 mph9.3 kmh 29.89 in1012.2 mb 0.00 in0.0 mm 0.00 in0.0 mm 0.35 in8.9 mm
04:10 PM 41.2°F5.1°C 23.9°F-4.5°C 50% 3.4 mph NE5.5 kmh NE 8.5 mph13.7 kmh 29.89 in1012.2 mb 0.00 in0.0 mm 0.00 in0.0 mm 0.35 in8.9 mm
04:20 PM 41.0°F5.0°C 23.8°F-4.6°C 50% 5.0 mph NNE8.0 kmh NNE 8.5 mph13.7 kmh 29.89 in1012.2 mb 0.00 in0.0 mm 0.00 in0.0 mm 0.35 in8.9 mm
04:30 PM 40.8°F4.9°C 24.5°F-4.2°C 52% 0.3 mph ENE0.5 kmh ENE 1.1 mph1.8 kmh 29.90 in1012.5 mb 0.00 in0.0 mm 0.00 in0.0 mm 0.35 in8.9 mm
04:40 PM 40.6°F4.8°C 23.4°F-4.8°C 50% 4.2 mph E6.8 kmh E 9.2 mph14.8 kmh 29.90 in1012.5 mb 0.00 in0.0 mm 0.00 in0.0 mm 0.35 in8.9 mm
04:50 PM 40.8°F4.9°C 23.1°F-4.9°C 49% 5.1 mph ENE8.2 kmh ENE 7.8 mph12.6 kmh 29.91 in1012.9 mb 0.00 in0.0 mm 0.00 in0.0 mm 0.35 in8.9 mm
05:00 PM 40.6°F4.8°C 23.4°F-4.8°C 50% 5.7 mph E9.2 kmh E 8.1 mph13.0 kmh 29.91 in1012.9 mb 0.00 in0.0 mm 0.00 in0.0 mm 0.35 in8.9 mm
05:10 PM 40.3°F4.6°C 23.6°F-4.7°C 51% 3.7 mph E6.0 kmh E 6.7 mph10.8 kmh 29.91 in1012.9 mb 0.00 in0.0 mm 0.00 in0.0 mm 0.35 in8.9 mm
05:20 PM 39.9°F4.4°C 23.2°F-4.9°C 51% 2.3 mph E3.7 kmh E 4.9 mph7.9 kmh 29.92 in1013.2 mb 0.00 in0.0 mm 0.00 in0.0 mm 0.35 in8.9 mm
05:30 PM 39.9°F4.4°C 23.7°F-4.6°C 52% Calm Calm -- 29.92 in1013.2 mb 0.00 in0.0 mm 0.00 in0.0 mm 0.35 in8.9 mm
05:40 PM 39.9°F4.4°C 23.7°F-4.6°C 52% 1.3 mph E2.1 kmh E 6.9 mph11.1 kmh 29.93 in1013.5 mb 0.00 in0.0 mm 0.00 in0.0 mm 0.35 in8.9 mm
05:50 PM 39.9°F4.4°C 22.3°F-5.4°C 49% 1.9 mph E3.1 kmh E 6.9 mph11.1 kmh 29.93 in1013.5 mb 0.00 in0.0 mm 0.00 in0.0 mm 0.35 in8.9 mm
06:00 PM 40.5°F4.7°C 22.3°F-5.4°C 48% 4.7 mph NE7.6 kmh NE 10.3 mph16.6 kmh 29.94 in1013.9 mb 0.00 in0.0 mm 0.00 in0.0 mm 0.35 in8.9 mm
06:10 PM 40.5°F4.7°C 22.3°F-5.4°C 48% 4.6 mph N7.4 kmh N 10.3 mph16.6 kmh 29.95 in1014.2 mb 0.00 in0.0 mm 0.00 in0.0 mm 0.35 in8.9 mm
06:20 PM 40.3°F4.6°C 22.1°F-5.5°C 48% 3.2 mph NW5.1 kmh NW 8.1 mph13.0 kmh 29.95 in1014.2 mb 0.00 in0.0 mm 0.00 in0.0 mm 0.35 in8.9 mm
06:30 PM 39.9°F4.4°C 22.3°F-5.4°C 49% 1.1 mph NE1.8 kmh NE 5.1 mph8.2 kmh 29.95 in1014.2 mb 0.00 in0.0 mm 0.00 in0.0 mm 0.35 in8.9 mm
06:40 PM 39.7°F4.3°C 22.1°F-5.5°C 49% 0.4 mph NE0.6 kmh NE 3.1 mph5.0 kmh 29.96 in1014.6 mb 0.00 in0.0 mm 0.00 in0.0 mm 0.35 in8.9 mm
06:50 PM 39.9°F4.4°C 22.3°F-5.4°C 49% 0.3 mph NE0.5 kmh NE 3.1 mph5.0 kmh 29.96 in1014.6 mb 0.00 in0.0 mm 0.00 in0.0 mm 0.35 in8.9 mm
07:00 PM 39.7°F4.3°C 22.1°F-5.5°C 49% 1.2 mph NNE1.9 kmh NNE 3.1 mph5.0 kmh 29.96 in1014.6 mb 0.00 in0.0 mm 0.00 in0.0 mm 0.35 in8.9 mm
07:10 PM 39.9°F4.4°C 22.3°F-5.4°C 49% 0.1 mph NE0.2 kmh NE 2.2 mph3.5 kmh 29.97 in1014.9 mb 0.00 in0.0 mm 0.00 in0.0 mm 0.35 in8.9 mm
07:20 PM 39.7°F4.3°C 22.1°F-5.5°C 49% Calm Calm -- 29.98 in1015.2 mb 0.00 in0.0 mm 0.00 in0.0 mm 0.35 in8.9 mm
07:30 PM 39.7°F4.3°C 21.6°F-5.8°C 48% Calm Calm -- 29.98 in1015.2 mb 0.00 in0.0 mm 0.00 in0.0 mm 0.35 in8.9 mm
07:40 PM 39.4°F4.1°C 21.8°F-5.7°C 49% Calm Calm -- 29.99 in1015.6 mb 0.00 in0.0 mm 0.00 in0.0 mm 0.35 in8.9 mm
07:50 PM 39.0°F3.9°C 21.9°F-5.6°C 50% Calm Calm -- 29.99 in1015.6 mb 0.00 in0.0 mm 0.00 in0.0 mm 0.35 in8.9 mm
08:00 PM 39.0°F3.9°C 21.5°F-5.8°C 49% Calm Calm -- 30.00 in1015.9 mb 0.00 in0.0 mm 0.00 in0.0 mm 0.35 in8.9 mm
08:10 PM 38.5°F3.6°C 21.4°F-5.9°C 50% Calm Calm -- 30.01 in1016.3 mb 0.00 in0.0 mm 0.00 in0.0 mm 0.35 in8.9 mm
08:20 PM 38.8°F3.8°C 21.8°F-5.7°C 50% Calm Calm -- 30.01 in1016.3 mb 0.00 in0.0 mm 0.00 in0.0 mm 0.35 in8.9 mm
08:30 PM 38.8°F3.8°C 21.3°F-5.9°C 49% Calm Calm -- 30.01 in1016.3 mb 0.00 in0.0 mm 0.00 in0.0 mm 0.35 in8.9 mm
08:40 PM 38.5°F3.6°C 21.0°F-6.1°C 49% Calm Calm -- 30.01 in1016.3 mb 0.00 in0.0 mm 0.00 in0.0 mm 0.35 in8.9 mm
08:50 PM 38.3°F3.5°C 21.7°F-5.7°C 51% Calm Calm -- 30.02 in1016.6 mb 0.00 in0.0 mm 0.00 in0.0 mm 0.35 in8.9 mm
09:00 PM 37.8°F3.2°C 21.7°F-5.7°C 52% Calm Calm -- 30.02 in1016.6 mb 0.00 in0.0 mm 0.00 in0.0 mm 0.35 in8.9 mm
09:10 PM 37.2°F2.9°C 21.6°F-5.8°C 53% Calm Calm -- 30.03 in1016.9 mb 0.00 in0.0 mm 0.00 in0.0 mm 0.35 in8.9 mm
09:20 PM 37.2°F2.9°C 22.1°F-5.5°C 54% Calm Calm -- 30.04 in1017.3 mb 0.00 in0.0 mm 0.00 in0.0 mm 0.35 in8.9 mm
09:30 PM 37.4°F3.0°C 22.3°F-5.4°C 54% Calm Calm -- 30.04 in1017.3 mb 0.00 in0.0 mm 0.00 in0.0 mm 0.35 in8.9 mm
09:40 PM 37.4°F3.0°C 22.3°F-5.4°C 54% Calm Calm -- 30.04 in1017.3 mb 0.00 in0.0 mm 0.00 in0.0 mm 0.35 in8.9 mm
09:50 PM 36.7°F2.6°C 22.4°F-5.3°C 56% Calm Calm -- 30.04 in1017.3 mb 0.00 in0.0 mm 0.00 in0.0 mm 0.35 in8.9 mm
10:00 PM 36.1°F2.3°C 22.4°F-5.3°C 57% Calm Calm -- 30.05 in1017.6 mb 0.00 in0.0 mm 0.00 in0.0 mm 0.35 in8.9 mm
10:10 PM 36.9°F2.7°C 22.2°F-5.4°C 55% Calm Calm -- 30.06 in1017.9 mb 0.00 in0.0 mm 0.00 in0.0 mm 0.35 in8.9 mm
10:20 PM 36.3°F2.4°C 22.1°F-5.5°C 56% Calm Calm -- 30.06 in1017.9 mb 0.00 in0.0 mm 0.00 in0.0 mm 0.35 in8.9 mm
10:30 PM 36.0°F2.2°C 21.8°F-5.7°C 56% Calm Calm -- 30.06 in1017.9 mb 0.00 in0.0 mm 0.00 in0.0 mm 0.35 in8.9 mm
10:40 PM 37.8°F3.2°C 22.1°F-5.5°C 53% Calm Calm -- 30.07 in1018.3 mb 0.00 in0.0 mm 0.00 in0.0 mm 0.35 in8.9 mm
10:50 PM 35.8°F2.1°C 22.4°F-5.3°C 58% Calm Calm -- 30.07 in1018.3 mb 0.00 in0.0 mm 0.00 in0.0 mm 0.35 in8.9 mm
11:00 PM 35.8°F2.1°C 22.4°F-5.3°C 58% Calm Calm -- 30.07 in1018.3 mb 0.00 in0.0 mm 0.00 in0.0 mm 0.35 in8.9 mm
11:10 PM 35.4°F1.9°C 22.1°F-5.5°C 58% Calm Calm -- 30.07 in1018.3 mb 0.00 in0.0 mm 0.00 in0.0 mm 0.35 in8.9 mm
11:20 PM 35.2°F1.8°C 21.9°F-5.6°C 58% Calm Calm -- 30.07 in1018.3 mb 0.00 in0.0 mm 0.00 in0.0 mm 0.35 in8.9 mm
11:30 PM 34.3°F1.3°C 21.5°F-5.8°C 59% Calm Calm -- 30.07 in1018.3 mb 0.00 in0.0 mm 0.00 in0.0 mm 0.35 in8.9 mm
11:40 PM 35.2°F1.8°C 21.5°F-5.8°C 57% Calm Calm -- 30.08 in1018.6 mb 0.00 in0.0 mm 0.00 in0.0 mm 0.35 in8.9 mm
11:50 PM 34.3°F1.3°C 21.1°F-6.1°C 58% Calm Calm -- 30.09 in1019.0 mb 0.00 in0.0 mm 0.00 in0.0 mm 0.35 in8.9 mm